Airport View

Enter AWOS ICAO identifier for current METAR.

ex. KFNL

KHJO 191853Z AUTO VRB06KT 10SM CLR 34/15 A2987 RMK AO2 SLP113 T03390150

19 Jun 2019 19:02

Frequency: 134.75

Phone: 559-585-8076

Other Area AWOS: KVIS - KNLC - KFCH - KFAT

TAF KVIS 191720Z 1918/2018 30009KT P6SM SKC TEMPO 2004/2008 31010G15KT P6SM SKC